Weather observations for the past three days for
Hallock Municipal Airport
Imperial (Metric)
Date Time (cdt) Wind (mph) Vis. (mi.) Weather Sky Cond. Temperature (ºF) Relative Humidity Wind Chill (°F) Heat Index (°F) Pressure Precipitation (in)
Air Dwpt 6 hour altimeter (in) sea level (mb) 1 hr 3 hr 6 hr
Max. Min.
30 23:15 E 13 10.00 Light Drizzle SCT032 SCT050 BKN060 68 66.2 94% 29.67 0.0
30 22:55 SE 12 4.00 Light Rain SCT012 BKN035 OVC060 68 66.2 94% 29.7 0.0
30 22:35 SE 12 5.00 Rain BKN023 BKN031 OVC060 69.8 66.2 88% 29.71 0.0 0.01
30 22:15 SE 12 G 17 10.00 Thunderstorm Light Rain SCT023 OVC033 69.8 66.2 88% 29.73 0.0
30 21:55 SE 9 10.00 Light Rain SCT025 OVC033 71.6 66.2 83% 29.73 0.0
30 21:35 SE 10 10.00 Thunderstorm in Vicinity OVC025 71.6 66.2 83% 29.73 0.0
30 21:15 SE 12 G 16 10.00 Thunderstorm in Vicinity OVC025 73.4 66.2 78% 29.74 0.0
30 20:55 SE 13 G 18 10.00 Thunderstorm OVC025 73.4 66.2 78% 29.74 0.0
30 20:35 SE 12 G 16 10.00 Overcast OVC023 73.4 68 83% 29.74 0.0
30 20:15 SE 15 G 20 10.00 Overcast OVC025 73.4 68 83% 29.74 0.0
30 19:55 SE 9 10.00 Mostly Cloudy SCT025 SCT060 BKN110 73.4 68 83% 29.74 0.0
30 19:35 SE 13 10.00 Mostly Cloudy BKN110 73.4 68 83% 29.74 0.0
30 19:15 SE 13 G 17 10.00 Mostly Cloudy BKN110 75.2 68 78% 76 29.74 0.0
30 18:55 SE 13 G 18 10.00 Partly Cloudy SCT110 75.2 68 78% 76 29.73 0.0
30 18:35 E 13 G 22 10.00 Fair CLR 75.2 69.8 83% 75 29.74 0.0
30 18:15 E 15 10.00 Fair CLR 75.2 68 78% 76 29.73 0.0
30 17:55 E 12 10.00 Fair CLR 75.2 68 78% 76 29.75 0.0
30 17:35 SE 17 G 23 10.00 Fair CLR 75.2 68 78% 76 29.75 0.0
30 17:15 SE 14 10.00 Fair CLR 77 68 74% 79 29.76 0.0
30 16:55 SE 16 G 21 10.00 Partly Cloudy SCT028 78.8 68 70% 81 29.77 0.0
30 16:35 E 10 G 17 10.00 Fair CLR 78.8 69.8 74% 81 29.78 0.0
30 16:15 SE 13 10.00 Fair CLR 78.8 68 70% 81 29.79 0.0
30 15:55 E 15 G 18 10.00 Fair CLR 80.6 68 66% 83 29.79 0.0
30 15:35 SE 13 G 17 10.00 Fair CLR 80.6 66.2 62% 83 29.79 0.0
30 15:15 E 14 G 18 10.00 Fair CLR 82.4 68 62% 85 29.79 0.0
30 14:55 E 12 10.00 Fair CLR 82.4 68 62% 85 29.79 0.0
30 14:35 E 14 G 17 10.00 Fair CLR 82.4 68 62% 85 29.79 0.0
30 14:15 E 14 G 20 10.00 Fair CLR 80.6 66.2 62% 83 29.8 0.0
30 13:55 SE 14 G 21 10.00 Fair CLR 80.6 68 66% 83 29.8 0.0
30 13:35 SE 15 G 18 10.00 Fair CLR 78.8 68 70% 81 29.8 0.0
30 13:15 SE 13 G 17 10.00 Fair CLR 78.8 66.2 65% 81 29.81 0.0
30 12:55 E 14 G 17 10.00 Fair CLR 78.8 66.2 65% 81 29.81 0.0
30 12:35 E 12 G 16 10.00 Fair CLR 80.6 66.2 62% 83 29.82 0.0
30 12:15 SE 13 10.00 Fair CLR 80.6 66.2 62% 83 29.82 0.0
30 11:55 E 10 10.00 Fair CLR 78.8 69.8 74% 81 29.83 0.0
30 11:35 E 13 10.00 Fair CLR 77 68 74% 79 29.84 0.0
30 11:15 E 8 10.00 Fair CLR 75.2 69.8 83% 75 29.84 0.0
30 10:55 E 7 10.00 Fair CLR 71.6 69.8 94% 29.84 0.0
30 10:35 E 5 10.00 Fair CLR 71.6 68 88% 29.85 0.0
30 10:15 E 3 10.00 Fair CLR 69.8 68 94% 29.85 0.0
30 09:55 E 5 10.00 Fair CLR 69.8 68 94% 29.85 0.0
30 09:35 E 6 10.00 Fair CLR 68 66.2 94% 29.84 0.0
30 09:15 E 6 10.00 Fair CLR 68 66.2 94% 29.83 0.0
30 08:55 E 7 10.00 Fair CLR 68 66.2 94% 29.84 0.0
30 08:35 E 8 10.00 Fair CLR 68 66.2 94% 29.84 0.0
30 08:15 E 6 10.00 Fair CLR 66.2 66.2 100% 29.85 0.0
30 07:55 E 5 10.00 Fair CLR 66.2 66.2 100% 29.86 0.0
30 07:35 E 6 10.00 Partly Cloudy SCT065 SCT100 66.2 66.2 100% 29.85 0.0
30 07:15 E 7 10.00 Fair CLR 66.2 66.2 100% 29.84 0.0
30 06:55 E 5 10.00 Partly Cloudy SCT060 66.2 64.4 94% 29.84 0.0
30 06:35 E 7 10.00 Partly Cloudy SCT060 66.2 64.4 94% 29.84 0.0
30 06:15 E 7 10.00 Partly Cloudy SCT060 SCT100 66.2 64.4 94% 29.84 0.0
30 05:55 E 6 10.00 Partly Cloudy SCT060 SCT100 66.2 64.4 94% 29.84 0.0
30 05:35 E 6 10.00 Partly Cloudy SCT060 SCT100 66.2 64.4 94% 29.84 0.0
30 05:15 E 5 10.00 Partly Cloudy SCT060 66.2 64.4 94% 29.83 0.0
30 04:55 E 7 10.00 Partly Cloudy SCT060 64.4 64.4 100% 29.83 0.0
30 04:35 E 6 10.00 Partly Cloudy SCT060 SCT095 64.4 64.4 100% 29.83 0.0
30 04:15 E 7 10.00 Partly Cloudy SCT060 SCT095 64.4 64.4 100% 29.83 0.0
30 03:55 E 6 10.00 Partly Cloudy SCT060 SCT095 64.4 64.4 100% 29.84 0.0
30 03:35 E 8 10.00 Partly Cloudy SCT060 66.2 64.4 94% 29.83 0.0
30 03:15 E 6 10.00 Fair CLR 64.4 64.4 100% 29.83 0.0
30 02:55 E 5 10.00 Partly Cloudy SCT100 64.4 64.4 100% 29.84 0.0
30 02:35 E 5 10.00 Fair CLR 64.4 64.4 100% 29.84 0.0
30 02:15 E 5 10.00 Partly Cloudy SCT055 64.4 64.4 100% 29.84 0.0
30 01:55 E 6 10.00 Partly Cloudy SCT055 66.2 64.4 94% 29.84 0.0
30 01:35 E 6 10.00 Partly Cloudy SCT055 SCT095 66.2 64.4 94% 29.84 0.0
30 01:15 E 5 10.00 Partly Cloudy SCT060 SCT095 66.2 64.4 94% 29.83 0.0
30 00:55 E 6 10.00 Partly Cloudy SCT065 SCT095 66.2 66.2 100% 29.84 0.0
30 00:35 E 6 10.00 Fair CLR 66.2 64.4 94% 29.84 0.0
30 00:15 E 3 10.00 Partly Cloudy SCT060 SCT100 66.2 66.2 100% 29.85 0.0
29 23:55 E 5 10.00 Partly Cloudy SCT060 66.2 66.2 100% 29.85 0.0
29 23:35 E 3 10.00 Partly Cloudy SCT060 66.2 66.2 100% 29.85 0.0
29 23:15 E 5 10.00 Partly Cloudy SCT060 68 66.2 94% 29.84 0.0
29 22:55 E 5 10.00 Partly Cloudy SCT060 68 66.2 94% 29.84 0.0
29 22:35 E 6 10.00 Partly Cloudy SCT060 SCT100 69.8 66.2 88% 29.84 0.0
29 22:15 E 6 10.00 Partly Cloudy SCT060 SCT100 69.8 68 94% 29.84 0.0
29 21:55 E 6 10.00 Partly Cloudy SCT060 SCT110 69.8 68 94% 29.83 0.0
29 21:35 E 6 10.00 Partly Cloudy SCT060 SCT100 71.6 68 88% 29.83 0.0
29 21:15 E 6 10.00 Partly Cloudy SCT060 SCT110 71.6 69.8 94% 29.82 0.0
29 20:55 SE 5 10.00 Partly Cloudy SCT060 73.4 69.8 89% 29.82 0.0
29 20:35 SE 3 10.00 Partly Cloudy SCT060 73.4 69.8 89% 29.82 0.0
29 20:15 SE 3 10.00 Partly Cloudy SCT060 SCT110 75.2 69.8 83% 75 29.81 0.0
29 19:55 SE 8 10.00 Partly Cloudy SCT060 SCT110 77 71.6 83% 78 29.8 0.0
29 19:35 SE 7 10.00 Partly Cloudy SCT060 SCT110 78.8 71.6 79% 82 29.8 0.0
29 19:15 SE 8 10.00 Partly Cloudy SCT060 78.8 69.8 74% 81 29.79 0.0
29 18:55 E 6 10.00 Fair CLR 80.6 71.6 74% 85 29.8 0.0
29 18:35 SE 8 10.00 Fair CLR 82.4 71.6 70% 87 29.79 0.0
29 18:15 SE 9 10.00 Partly Cloudy SCT050 82.4 71.6 70% 87 29.79 0.0
29 17:55 SE 9 10.00 Mostly Cloudy SCT042 BKN050 82.4 69.8 66% 86 29.79 0.0
29 17:35 SE 7 10.00 Partly Cloudy SCT060 82.4 71.6 70% 87 29.79 0.0
29 17:15 SE 7 10.00 Fair CLR 82.4 69.8 66% 86 29.78 0.0
29 16:55 E 7 10.00 Fair CLR 82.4 69.8 66% 86 29.78 0.0
29 16:35 E 5 10.00 Fair CLR 82.4 69.8 66% 86 29.79 0.0
29 16:15 E 3 10.00 Partly Cloudy SCT043 82.4 69.8 66% 86 29.79 0.0
29 15:35 Calm 10.00 Fair CLR 82.4 69.8 66% 86 29.79 0.0
29 15:15 E 7 10.00 Fair CLR 84.2 69.8 62% 88 29.79 0.0
29 14:55 E 3 10.00 Fair CLR 84.2 69.8 62% 88 29.79 0.0
29 14:35 E 5 10.00 Fair CLR 82.4 69.8 66% 86 29.8 0.0
29 14:15 NE 3 10.00 Fair CLR 82.4 69.8 66% 86 29.8 0.0
29 13:55 Calm 10.00 Fair CLR 82.4 69.8 66% 86 29.8 0.0
29 13:35 SE 3 10.00 Fair CLR 82.4 69.8 66% 86 29.8 0.0
29 13:15 SE 6 10.00 Fair CLR 80.6 69.8 70% 84 29.8 0.0
29 12:55 E 3 10.00 Fair CLR 82.4 69.8 66% 86 29.8 0.0
29 12:35 SE 6 10.00 Fair CLR 80.6 69.8 70% 84 29.8 0.0
29 12:15 SE 6 10.00 Fair CLR 78.8 69.8 74% 81 29.8 0.0
29 11:55 SE 6 10.00 Fair CLR 77 69.8 79% 79 29.81 0.0
29 11:35 SE 5 10.00 Fair CLR 77 69.8 79% 79 29.82 0.0
29 11:15 Calm 10.00 Fair CLR 75.2 68 78% 76 29.82 0.0
29 10:55 SE 5 10.00 Partly Cloudy SCT039 71.6 68 88% 29.83 0.0
29 10:35 SE 3 10.00 Fair CLR 71.6 66.2 83% 29.83 0.0
29 10:15 SE 8 10.00 Partly Cloudy SCT042 71.6 66.2 83% 29.83 0.0
29 09:55 SE 7 10.00 Partly Cloudy SCT039 69.8 66.2 88% 29.84 0.0
29 09:35 SE 7 10.00 Partly Cloudy SCT045 68 64.4 88% 29.84 0.0
29 09:15 SE 7 10.00 Partly Cloudy SCT045 68 64.4 88% 29.83 0.0
29 08:55 E 6 10.00 Fair CLR 66.2 64.4 94% 29.83 0.0
29 08:35 E 6 10.00 Fair CLR 66.2 62.6 88% 29.83 0.0
29 08:15 E 6 10.00 Fair CLR 64.4 62.6 94% 29.83 0.0
29 07:55 E 6 10.00 Partly Cloudy SCT110 64.4 62.6 94% 29.82 0.0
29 07:35 E 6 10.00 Fair CLR 62.6 62.6 100% 29.82 0.0
29 07:15 NE 6 10.00 Partly Cloudy SCT060 SCT095 62.6 60.8 94% 29.81 0.0
29 06:55 NE 3 10.00 Partly Cloudy SCT070 62.6 60.8 94% 29.82 0.0
29 06:35 E 6 10.00 Partly Cloudy SCT060 64.4 60.8 88% 29.81 0.0
29 06:15 E 7 10.00 Partly Cloudy SCT060 64.4 60.8 88% 29.8 0.0
29 05:55 E 7 10.00 Partly Cloudy SCT060 SCT100 64.4 60.8 88% 29.81 0.0
29 05:35 E 6 10.00 Partly Cloudy SCT060 64.4 60.8 88% 29.81 0.0
29 05:15 E 7 10.00 Partly Cloudy SCT060 SCT095 64.4 60.8 88% 29.82 0.0
29 04:55 E 7 10.00 Partly Cloudy SCT060 SCT100 62.6 60.8 94% 29.81 0.0
29 04:35 E 7 10.00 Partly Cloudy SCT060 SCT070 SCT100 62.6 60.8 94% 29.83 0.0
29 04:15 E 7 10.00 Partly Cloudy SCT060 SCT070 SCT100 62.6 60.8 94% 29.83 0.0
29 03:55 E 7 10.00 Partly Cloudy SCT060 SCT110 62.6 60.8 94% 29.83 0.0
29 03:35 E 6 10.00 Partly Cloudy SCT060 62.6 60.8 94% 29.83 0.0
29 03:15 E 6 10.00 Partly Cloudy SCT060 62.6 60.8 94% 29.83 0.0
29 02:55 E 7 10.00 Partly Cloudy SCT060 64.4 60.8 88% 29.83 0.0
29 02:35 E 8 10.00 Partly Cloudy SCT060 SCT100 64.4 60.8 88% 29.83 0.0
29 02:15 E 8 10.00 Partly Cloudy SCT060 66.2 60.8 83% 29.84 0.0
29 01:55 E 9 10.00 Partly Cloudy SCT060 68 62.6 83% 29.85 0.0
29 01:35 SE 9 10.00 Partly Cloudy SCT060 SCT080 68 60.8 78% 29.86 0.0
29 01:15 SE 9 10.00 Partly Cloudy SCT060 SCT100 66.2 60.8 83% 29.87 0.0
29 00:55 SE 10 10.00 Partly Cloudy SCT060 SCT100 66.2 60.8 83% 29.87 0.0
29 00:35 SE 10 10.00 Partly Cloudy SCT060 SCT110 68 60.8 78% 29.88 0.0
29 00:15 SE 12 G 16 10.00 Partly Cloudy SCT060 SCT070 SCT110 68 60.8 78% 29.88 0.0
28 23:35 SE 9 10.00 Partly Cloudy SCT060 69.8 60.8 73% 29.89 0.0
28 23:15 SE 10 10.00 Partly Cloudy SCT060 69.8 59 69% 29.89 0.0
28 22:35 E 9 10.00 Mostly Cloudy BKN110 69.8 59 69% 29.91 0.0
28 22:15 E 9 10.00 Overcast OVC120 69.8 60.8 73% 29.91 0.0
28 21:55 E 10 10.00 Overcast OVC120 69.8 60.8 73% 29.92 0.0
28 21:35 E 10 10.00 Mostly Cloudy BKN120 68 60.8 78% 29.92 0.0
28 21:15 E 9 10.00 Partly Cloudy SCT060 68 60.8 78% 29.93 0.0
28 20:55 E 8 10.00 Partly Cloudy SCT060 69.8 60.8 73% 29.93 0.0
28 20:35 E 7 10.00 Partly Cloudy SCT060 69.8 60.8 73% 29.93 0.0
28 20:15 E 7 10.00 Mostly Cloudy SCT060 BKN075 69.8 60.8 73% 29.92 0.0
28 19:55 E 6 10.00 Mostly Cloudy BKN060 71.6 60.8 69% 29.92 0.0
28 19:35 E 6 10.00 Partly Cloudy SCT060 SCT110 73.4 60.8 65% 29.92 0.0
28 19:15 E 7 10.00 Partly Cloudy SCT080 73.4 57.2 57% 29.93 0.0
28 18:55 E 7 10.00 Partly Cloudy SCT060 SCT080 75.2 57.2 54% 78 29.93 0.0
28 18:15 E 9 10.00 Partly Cloudy SCT070 75.2 55.4 50% 78 29.93 0.0
28 17:55 E 10 10.00 Fair CLR 75.2 55.4 50% 78 29.93 0.0
28 17:35 SE 8 10.00 Fair CLR 75.2 55.4 50% 78 29.95 0.0
28 17:15 SE 12 10.00 Fair CLR 75.2 53.6 47% 78 29.95 0.0
28 16:55 SE 15 10.00 Light Rain CLR 75.2 55.4 50% 78 29.94 0.0
28 16:35 SE 13 10.00 Fair CLR 75.2 55.4 50% 78 29.96 0.0
28 16:15 SE 9 10.00 Partly Cloudy SCT070 77 53.6 44% 78 29.97 0.0
28 15:55 S 9 10.00 Fair CLR 77 55.4 47% 79 29.99 0.0
28 15:35 SE 10 10.00 Fair CLR 77 55.4 47% 79 29.99 0.0
28 15:15 SE 9 10.00 Fair CLR 77 55.4 47% 79 29.99 0.0
28 14:55 SE 10 10.00 Fair CLR 77 55.4 47% 79 30.01 0.0
28 14:35 SE 12 G 16 10.00 Fair CLR 77 55.4 47% 79 30.01 0.0
28 14:15 SE 13 G 16 10.00 Fair CLR 77 53.6 44% 78 30.02 0.0
28 13:55 S 12 10.00 Fair CLR 77 53.6 44% 78 30.03 0.0
28 13:35 S 15 G 18 10.00 Fair CLR 77 55.4 47% 79 30.03 0.0
28 13:15 S 13 10.00 Fair CLR 77 53.6 44% 78 30.04 0.0
28 12:55 S 13 10.00 Fair CLR 77 53.6 44% 78 30.04 0.0
28 12:35 S 15 G 20 10.00 Partly Cloudy SCT110 78.8 53.6 42% 79 30.05 0.0
28 12:15 SE 13 G 16 10.00 Fair CLR 77 55.4 47% 79 30.05 0.0
28 11:55 S 10 G 16 10.00 Fair CLR 73.4 55.4 53% 30.06 0.0
28 11:35 S 14 10.00 Fair CLR 73.4 55.4 53% 30.07 0.0
28 11:15 S 12 10.00 Fair CLR 73.4 55.4 53% 30.08 0.0
28 10:55 S 13 10.00 Fair CLR 71.6 55.4 57% 30.08 0.0
28 10:35 S 12 10.00 Fair CLR 71.6 57.2 61% 30.09 0.0
28 10:15 S 13 10.00 Partly Cloudy SCT110 69.8 55.4 60% 30.09 0.0
28 09:55 S 13 10.00 Fair CLR 66.2 55.4 68% 30.09 0.0
28 09:35 S 12 10.00 Fair CLR 66.2 55.4 68% 30.08 0.0
28 09:15 S 10 10.00 Fair CLR 64.4 55.4 73% 30.09 0.0
28 08:55 S 12 10.00 Partly Cloudy SCT060 62.6 55.4 77% 30.08 0.0
28 08:35 SE 8 10.00 Partly Cloudy SCT060 60.8 53.6 77% 30.08 0.0
28 08:15 SE 8 10.00 Partly Cloudy SCT060 59 53.6 82% 30.08 0.0
28 07:55 SE 7 10.00 NULL NULL 57.2 53.6 88% 30.09 0.0
28 07:35 SE 6 10.00 NULL NULL 55.4 51.8 88% 30.1 0.0
28 07:15 SE 5 10.00 Partly Cloudy SCT060 SCT065 51.8 50 94% 30.11 0.0
28 06:55 SE 3 10.00 NULL NULL 51.8 48.2 88% 30.11 0.0
28 06:35 SE 5 10.00 Mostly Cloudy BKN060 50 48.2 94% 49 30.1 0.0
28 06:15 SE 6 10.00 Mostly Cloudy BKN060 51.8 51.8 100% 30.09 0.0
28 05:55 SE 6 10.00 NULL NULL 50 48.2 94% 48 30.09 0.0
28 05:35 SE 6 10.00 Partly Cloudy SCT055 SCT065 51.8 50 94% 30.09 0.0
28 05:15 SE 7 10.00 Mostly Cloudy SCT055 SCT065 BKN110 53.6 51.8 94% 30.09 0.0
28 04:55 SE 6 10.00 NULL NULL 51.8 50 94% 30.09 0.0
28 04:35 SE 8 10.00 NULL NULL 50 48.2 94% 47 30.09 0.0
28 04:15 SE 7 10.00 Mostly Cloudy SCT065 BKN070 51.8 50 94% 30.1 0.0
28 03:55 SE 7 10.00 Partly Cloudy SCT065 53.6 50 88% 30.1 0.0
28 03:35 SE 8 10.00 NULL NULL 53.6 51.8 94% 30.1 0.0
28 03:15 SE 7 10.00 Mostly Cloudy SCT055 SCT065 BKN110 53.6 51.8 94% 30.1 0.0
28 02:55 SE 7 10.00 NULL NULL 50 48.2 94% 48 30.1 0.0
28 02:35 SE 6 10.00 NULL NULL 51.8 50 94% 30.1 0.0
28 02:15 Calm 10.00 Mostly Cloudy BKN065 50 46.4 88% 30.1 0.0
28 01:55 E 3 10.00 NULL NULL 51.8 50 94% 30.1 0.0
28 01:35 E 3 10.00 Mostly Cloudy SCT065 BKN110 51.8 50 94% 30.1 0.0
28 01:15 E 3 10.00 NULL NULL 53.6 51.8 94% 30.11 0.0
28 00:55 E 5 10.00 Partly Cloudy SCT055 SCT065 53.6 51.8 94% 30.1 0.0
28 00:35 E 5 10.00 NULL NULL 53.6 51.8 94% 30.1 0.0
28 00:15 Calm 10.00 Mostly Cloudy BKN065 53.6 50 88% 30.1 0.0
27 23:55 Calm 10.00 NULL NULL 55.4 51.8 88% 30.09 0.0
27 23:35 Calm 10.00 Partly Cloudy SCT065 SCT070 55.4 51.8 88% 30.09 0.0
Date Time (cdt) Wind (mph) Vis. (mi.) Weather Sky Cond. Air Dwpt Max. Min. Relative Humidity Wind Chill (°F) Heat Index (°F) altimeter (in) sea level (mb) 1 hr 3 hr 6 hr
6 hour
Temperature (ºF) Pressure Precipitation (in)